createdAt,value
2022-09-07T00:00:26.811Z,13.43
2022-09-07T00:02:56.872Z,13.52
2022-09-07T00:05:26.701Z,12.07
2022-09-07T00:07:56.945Z,11.38
2022-09-07T00:10:27.751Z,10.77
2022-09-07T00:13:00.222Z,10.55
2022-09-07T00:15:31.198Z,10.83
2022-09-07T00:18:01.500Z,9.80
2022-09-07T00:20:32.597Z,10.43
2022-09-07T00:23:06.078Z,11.00
2022-09-07T00:25:42.773Z,9.70
2022-09-07T00:28:17.811Z,13.60
2022-09-07T00:30:53.442Z,8.10
2022-09-07T00:33:27.860Z,8.18
2022-09-07T00:36:01.466Z,9.20
2022-09-07T00:38:35.831Z,9.07
2022-09-07T00:41:13.798Z,14.35
2022-09-07T00:43:52.043Z,9.43
2022-09-07T00:46:30.438Z,11.60
2022-09-07T00:49:11.285Z,18.10
2022-09-07T00:51:49.287Z,9.77
2022-09-07T00:54:24.429Z,16.08
2022-09-07T00:56:56.532Z,12.85
2022-09-07T00:59:34.436Z,6.53
2022-09-07T01:02:07.552Z,10.43
2022-09-07T01:04:39.442Z,13.95
2022-09-07T01:07:11.457Z,9.88
2022-09-07T01:09:43.506Z,11.07
2022-09-07T01:12:16.417Z,9.52
2022-09-07T01:14:52.410Z,7.97
2022-09-07T01:17:33.457Z,20.23
2022-09-07T01:20:40.496Z,15.77
2022-09-07T01:23:54.404Z,6.65
2022-09-07T01:27:18.406Z,8.43
2022-09-07T01:29:56.768Z,14.50
2022-09-07T01:32:35.621Z,13.68
2022-09-07T01:35:09.662Z,16.85
2022-09-07T01:37:45.126Z,12.93
2022-09-07T01:40:20.105Z,10.20
2022-09-07T01:42:55.421Z,13.57
2022-09-07T01:45:31.169Z,17.52
2022-09-07T01:48:04.119Z,17.88
2022-09-07T01:50:38.787Z,16.60
2022-09-07T01:53:15.285Z,12.68
2022-09-07T01:55:49.146Z,11.90
2022-09-07T01:58:28.356Z,10.38
2022-09-07T02:01:08.248Z,9.30
2022-09-07T02:03:41.870Z,13.55
2022-09-07T02:06:17.568Z,11.82
2022-09-07T02:08:54.876Z,17.33
2022-09-07T02:11:41.749Z,12.30
2022-09-07T02:14:19.397Z,15.02
2022-09-07T02:17:00.509Z,16.63
2022-09-07T02:19:38.492Z,12.93
2022-09-07T02:22:14.324Z,22.27
2022-09-07T02:24:51.526Z,10.13
2022-09-07T02:27:32.349Z,9.60
2022-09-07T02:30:14.470Z,9.98
2022-09-07T02:32:54.428Z,9.38
2022-09-07T02:35:26.676Z,7.95
2022-09-07T02:38:00.324Z,9.70
2022-09-07T02:40:32.320Z,8.68
2022-09-07T02:43:05.077Z,8.23
2022-09-07T02:45:46.776Z,9.20
2022-09-07T02:48:51.177Z,8.47
2022-09-07T02:51:35.783Z,6.57
2022-09-07T02:54:27.737Z,12.38
2022-09-07T02:57:14.020Z,8.68
2022-09-07T02:59:57.858Z,6.63
2022-09-07T03:02:47.945Z,7.55
2022-09-07T03:05:34.058Z,6.38
2022-09-07T03:08:08.640Z,6.35
2022-09-07T03:10:42.375Z,11.15
2022-09-07T03:13:23.033Z,5.65
2022-09-07T03:16:04.655Z,8.75
2022-09-07T03:18:35.360Z,5.70
2022-09-07T03:21:09.738Z,6.00
2022-09-07T03:23:48.848Z,7.20
2022-09-07T03:26:30.308Z,7.35
2022-09-07T03:29:19.060Z,9.15
2022-09-07T03:31:53.971Z,7.63
2022-09-07T03:34:27.809Z,5.90
2022-09-07T03:37:03.093Z,7.53
2022-09-07T03:39:36.543Z,7.47
2022-09-07T03:42:19.471Z,4.47
2022-09-07T03:45:06.574Z,7.38
2022-09-07T03:47:39.750Z,6.90
2022-09-07T03:50:11.159Z,3.97
2022-09-07T03:52:45.974Z,3.65
2022-09-07T03:55:16.511Z,3.92
2022-09-07T03:57:48.631Z,3.38
2022-09-07T04:00:20.741Z,5.30
2022-09-07T04:02:54.334Z,3.63
2022-09-07T04:05:25.762Z,6.30
2022-09-07T04:08:01.602Z,3.42
2022-09-07T04:10:33.559Z,5.20
2022-09-07T04:13:13.955Z,3.57
2022-09-07T04:15:47.086Z,5.50
2022-09-07T04:18:20.721Z,4.28
2022-09-07T04:20:54.000Z,3.65
2022-09-07T04:23:27.138Z,3.67
2022-09-07T04:25:57.389Z,6.13
2022-09-07T04:28:28.023Z,6.65
2022-09-07T04:30:58.432Z,3.53
2022-09-07T04:33:31.181Z,5.70
2022-09-07T04:36:07.599Z,5.13
2022-09-07T04:38:41.573Z,5.60
2022-09-07T04:41:15.691Z,4.85
2022-09-07T04:43:49.316Z,11.68
2022-09-07T04:49:04.396Z,6.13
2022-09-07T04:51:39.424Z,8.05
2022-09-07T04:54:13.729Z,6.55
2022-09-07T04:56:45.119Z,9.07
2022-09-07T04:59:17.444Z,5.77
2022-09-07T05:01:50.362Z,8.50
2022-09-07T05:04:21.214Z,5.60
2022-09-07T05:06:53.463Z,8.45
2022-09-07T05:09:26.180Z,5.17
2022-09-07T05:11:57.665Z,6.20
2022-09-07T05:14:29.038Z,6.82
2022-09-07T05:17:02.733Z,8.05
2022-09-07T05:19:33.239Z,5.65
2022-09-07T05:22:04.505Z,11.20
2022-09-07T05:24:40.474Z,6.22
2022-09-07T05:27:11.521Z,7.90
2022-09-07T05:32:35.508Z,8.32
2022-09-07T05:35:07.674Z,8.32
2022-09-07T05:37:39.158Z,7.85
2022-09-07T05:40:15.919Z,16.60
2022-09-07T05:42:47.504Z,15.20
2022-09-07T05:45:18.407Z,14.02
2022-09-07T05:47:52.167Z,19.65
2022-09-07T05:50:23.929Z,18.38
2022-09-07T05:52:55.320Z,18.03
2022-09-07T05:55:32.194Z,18.13
2022-09-07T05:58:02.221Z,19.55
2022-09-07T06:00:32.915Z,22.88
2022-09-07T06:03:03.603Z,20.00
2022-09-07T06:05:34.418Z,17.20
2022-09-07T06:08:08.779Z,16.17
2022-09-07T06:13:13.755Z,19.30
2022-09-07T06:15:44.795Z,20.52
2022-09-07T06:18:13.543Z,21.08
2022-09-07T06:20:53.120Z,24.48
2022-09-07T06:23:30.943Z,32.45
2022-09-07T06:26:12.512Z,27.75
2022-09-07T06:28:44.760Z,32.35
2022-09-07T06:31:18.714Z,18.23
2022-09-07T06:33:52.290Z,26.55
2022-09-07T06:36:25.243Z,18.10
2022-09-07T06:38:59.806Z,14.20
2022-09-07T06:44:29.836Z,20.25
2022-09-07T06:47:03.379Z,16.05
2022-09-07T06:49:34.115Z,16.15
2022-09-07T06:52:06.224Z,16.00
2022-09-07T06:54:58.726Z,21.83
2022-09-07T06:57:28.963Z,21.05
2022-09-07T06:59:57.467Z,21.25
2022-09-07T07:02:26.123Z,24.50
2022-09-07T07:04:54.836Z,17.50
2022-09-07T07:07:23.575Z,19.80
2022-09-07T07:09:54.220Z,22.55
2022-09-07T07:14:51.791Z,26.25
2022-09-07T07:17:27.889Z,22.30
2022-09-07T07:19:58.584Z,22.48
2022-09-07T07:22:46.156Z,28.45
2022-09-07T07:25:18.393Z,24.77
2022-09-07T07:27:50.832Z,27.67
2022-09-07T07:35:27.122Z,26.50
2022-09-07T07:43:57.133Z,22.55
2022-09-07T07:46:32.710Z,26.30
2022-09-07T07:49:06.406Z,25.23
2022-09-07T07:54:26.893Z,23.38
2022-09-07T07:57:00.510Z,21.85
2022-09-07T07:59:31.954Z,21.65
2022-09-07T08:02:05.662Z,22.13
2022-09-07T08:04:37.765Z,26.27
2022-09-07T08:07:13.598Z,27.88
2022-09-07T08:09:45.458Z,25.80
2022-09-07T08:12:23.226Z,23.75
2022-09-07T08:14:54.660Z,30.15
2022-09-07T08:17:30.102Z,30.80
2022-09-07T08:20:04.688Z,25.27
2022-09-07T08:22:34.949Z,31.63
2022-09-07T08:25:04.410Z,27.35
2022-09-07T08:27:35.824Z,26.70
2022-09-07T08:30:06.452Z,26.90
2022-09-07T08:32:46.371Z,29.50
2022-09-07T08:35:20.451Z,28.58
2022-09-07T08:37:53.439Z,24.67
2022-09-07T08:40:23.654Z,26.08
2022-09-07T08:43:08.235Z,25.65
2022-09-07T08:45:45.803Z,28.30
2022-09-07T08:48:24.964Z,29.25
2022-09-07T08:51:02.234Z,27.75
2022-09-07T08:53:37.866Z,24.63
2022-09-07T08:56:10.446Z,27.60
2022-09-07T08:58:49.148Z,26.80
2022-09-07T09:01:39.513Z,30.02
2022-09-07T09:04:27.401Z,28.00
2022-09-07T09:07:14.618Z,26.13
2022-09-07T09:10:23.985Z,28.85
2022-09-07T09:13:15.162Z,30.25
2022-09-07T09:16:01.933Z,24.90
2022-09-07T09:18:50.819Z,30.30
2022-09-07T09:21:25.010Z,26.88
2022-09-07T09:24:05.603Z,28.02
2022-09-07T09:26:38.916Z,27.55
2022-09-07T09:29:16.584Z,25.35
2022-09-07T09:31:49.087Z,27.13
2022-09-07T09:34:34.641Z,25.17
2022-09-07T09:37:24.958Z,30.40
2022-09-07T09:40:02.688Z,25.63
2022-09-07T09:42:35.333Z,28.05
2022-09-07T09:45:14.717Z,25.25
2022-09-07T09:47:51.501Z,35.58
2022-09-07T09:53:32.838Z,27.15
2022-09-07T09:56:06.311Z,26.55
2022-09-07T10:04:36.782Z,25.85
2022-09-07T10:07:19.693Z,23.98
2022-09-07T10:09:55.115Z,20.30
2022-09-07T10:12:32.784Z,22.65
2022-09-07T10:15:05.469Z,20.52
2022-09-07T10:17:37.611Z,19.73
2022-09-07T10:20:32.983Z,16.38
2022-09-07T10:25:41.818Z,15.43
2022-09-07T10:28:21.825Z,20.20
2022-09-07T10:31:15.262Z,17.90
2022-09-07T10:37:04.782Z,13.88
2022-09-07T10:39:50.496Z,15.52
2022-09-07T10:42:30.549Z,12.90
2022-09-07T10:45:20.819Z,13.02
2022-09-07T10:48:03.745Z,13.88
2022-09-07T10:50:40.154Z,16.83
2022-09-07T10:53:42.093Z,11.80
2022-09-07T10:56:19.317Z,10.32
2022-09-07T10:59:04.702Z,12.50
2022-09-07T11:01:46.763Z,9.95
2022-09-07T11:04:38.452Z,9.65
2022-09-07T11:07:18.998Z,8.57
2022-09-07T11:10:00.432Z,10.35
2022-09-07T11:12:32.410Z,9.98
2022-09-07T11:15:15.581Z,14.20
2022-09-07T11:17:52.608Z,7.65
2022-09-07T11:20:29.631Z,7.57
2022-09-07T11:23:11.316Z,8.05
2022-09-07T11:25:52.099Z,6.95
2022-09-07T11:28:30.208Z,7.65
2022-09-07T11:31:24.128Z,8.60
2022-09-07T11:36:59.060Z,10.75
2022-09-07T11:39:44.384Z,5.22
2022-09-07T11:42:44.598Z,9.15
2022-09-07T11:45:43.228Z,9.23
2022-09-07T11:48:36.630Z,6.18
2022-09-07T11:51:16.594Z,6.97
2022-09-07T11:53:54.404Z,7.40
2022-09-07T11:56:36.582Z,4.60
2022-09-07T11:59:36.800Z,5.72
2022-09-07T12:02:59.286Z,3.88
2022-09-07T12:06:11.366Z,3.30
2022-09-07T12:09:03.026Z,4.72
2022-09-07T12:11:48.234Z,4.80
2022-09-07T12:14:29.762Z,6.15
2022-09-07T12:17:36.550Z,3.90
2022-09-07T12:20:17.129Z,4.43
2022-09-07T12:23:18.709Z,5.07
2022-09-07T12:26:17.556Z,6.20
2022-09-07T12:29:23.463Z,2.08
2022-09-07T12:31:59.343Z,2.80
2022-09-07T12:34:55.269Z,4.90
2022-09-07T12:37:41.800Z,2.90
2022-09-07T12:41:02.019Z,2.83
2022-09-07T12:44:17.318Z,2.42
2022-09-07T12:46:56.454Z,4.22
2022-09-07T12:49:42.726Z,2.72
2022-09-07T12:52:33.603Z,2.85
2022-09-07T12:55:27.864Z,3.28
2022-09-07T12:58:13.925Z,4.35
2022-09-07T13:01:05.199Z,1.80
2022-09-07T13:04:01.187Z,3.13
2022-09-07T13:09:34.654Z,1.50
2022-09-07T13:12:07.288Z,3.15
2022-09-07T13:14:39.600Z,1.88
2022-09-07T13:17:44.667Z,2.63
2022-09-07T13:20:30.336Z,3.78
2022-09-07T13:23:22.377Z,7.63
2022-09-07T13:25:57.800Z,6.55
2022-09-07T13:28:40.339Z,5.10
2022-09-07T13:31:31.933Z,3.08
2022-09-07T13:34:49.258Z,1.77
2022-09-07T13:37:25.374Z,1.95
2022-09-07T13:39:59.526Z,3.03
2022-09-07T13:42:34.028Z,3.30
2022-09-07T13:45:10.191Z,2.90
2022-09-07T13:47:55.345Z,4.03
2022-09-07T13:50:39.577Z,2.40
2022-09-07T13:53:35.094Z,1.20
2022-09-07T13:56:20.994Z,3.95
2022-09-07T13:58:57.486Z,3.78
2022-09-07T14:01:30.348Z,3.10
2022-09-07T14:06:43.950Z,1.58
2022-09-07T14:09:19.909Z,2.80
2022-09-07T14:11:57.519Z,1.75
2022-09-07T14:14:27.971Z,1.67
2022-09-07T14:17:13.521Z,3.10
2022-09-07T14:19:45.718Z,2.35
2022-09-07T14:22:20.366Z,3.28
2022-09-07T14:24:56.485Z,2.70
2022-09-07T14:27:31.197Z,2.55
2022-09-07T14:30:28.562Z,2.15
2022-09-07T14:33:01.074Z,3.55
2022-09-07T14:35:34.383Z,1.58
2022-09-07T14:38:13.474Z,1.95
2022-09-07T14:40:51.601Z,3.10
2022-09-07T14:43:33.526Z,1.23
2022-09-07T14:46:17.544Z,2.60
2022-09-07T14:48:50.146Z,3.50
2022-09-07T14:51:35.287Z,6.45
2022-09-07T14:54:11.444Z,5.18
2022-09-07T14:57:01.606Z,2.42
2022-09-07T14:59:43.111Z,2.30
2022-09-07T15:02:41.504Z,1.95
2022-09-07T15:05:23.861Z,2.40
2022-09-07T15:07:54.459Z,2.15
2022-09-07T15:10:41.617Z,2.30
2022-09-07T15:13:37.847Z,1.92
2022-09-07T15:16:10.951Z,4.63
2022-09-07T15:21:39.736Z,2.30
2022-09-07T15:24:13.517Z,2.90
2022-09-07T15:29:42.055Z,3.75
2022-09-07T15:32:16.718Z,2.67
2022-09-07T15:34:49.613Z,3.08
2022-09-07T15:40:17.065Z,1.17
2022-09-07T15:43:11.455Z,4.82
2022-09-07T15:45:47.662Z,4.72
2022-09-07T15:48:20.494Z,3.92
2022-09-07T15:50:50.435Z,3.35
2022-09-07T15:56:08.070Z,3.35
2022-09-07T15:58:37.999Z,3.80
2022-09-07T16:04:01.652Z,3.28
2022-09-07T16:06:35.895Z,3.67
2022-09-07T16:09:06.369Z,4.45
2022-09-07T16:11:35.667Z,19.25
2022-09-07T16:14:07.818Z,19.60
2022-09-07T16:19:34.945Z,29.75
2022-09-07T16:22:04.907Z,16.38
2022-09-07T16:24:36.067Z,24.48
2022-09-07T16:27:06.510Z,19.90
2022-09-07T16:29:36.319Z,23.92
2022-09-07T16:34:56.515Z,14.48
2022-09-07T16:37:25.830Z,7.70
2022-09-07T16:39:56.678Z,8.20
2022-09-07T16:42:25.820Z,7.10
2022-09-07T16:46:02.560Z,6.95
2022-09-07T16:47:49.175Z,22.45
2022-09-07T16:50:19.188Z,11.98
2022-09-07T16:52:49.881Z,5.45
2022-09-07T16:55:18.251Z,6.75
2022-09-07T17:00:39.317Z,10.25
2022-09-07T17:03:09.512Z,7.20
2022-09-07T17:05:42.143Z,7.30
2022-09-07T17:08:15.387Z,8.00
2022-09-07T17:10:45.712Z,10.70
2022-09-07T17:13:14.945Z,12.95
2022-09-07T17:15:44.868Z,16.38
2022-09-07T17:18:17.057Z,15.07
2022-09-07T17:20:58.361Z,14.20
2022-09-07T17:23:30.541Z,14.90
2022-09-07T17:26:06.483Z,13.65
2022-09-07T17:28:37.213Z,17.15
2022-09-07T17:31:09.082Z,14.65
2022-09-07T17:33:43.677Z,14.40
2022-09-07T17:36:15.886Z,18.25
2022-09-07T17:41:38.331Z,10.38
2022-09-07T17:44:08.934Z,12.32
2022-09-07T17:46:38.601Z,12.93
2022-09-07T17:49:12.592Z,10.50
2022-09-07T17:51:42.776Z,10.85
2022-09-07T17:54:15.947Z,8.63
2022-09-07T17:56:47.379Z,11.13
2022-09-07T18:02:07.024Z,10.07
2022-09-07T18:04:37.274Z,8.32
2022-09-07T18:07:07.252Z,10.93
2022-09-07T18:09:37.039Z,8.25
2022-09-07T18:12:07.190Z,16.33
2022-09-07T18:14:37.600Z,16.35
2022-09-07T18:17:07.242Z,22.38
2022-09-07T18:19:38.578Z,20.98
2022-09-07T18:22:08.718Z,15.93
2022-09-07T18:24:37.955Z,11.10
2022-09-07T18:27:08.113Z,9.07
2022-09-07T18:29:38.136Z,15.25
2022-09-07T18:32:09.878Z,11.35
2022-09-07T18:34:43.956Z,10.32
2022-09-07T18:37:15.535Z,10.82
2022-09-07T18:39:45.182Z,11.88
2022-09-07T18:42:14.806Z,8.82
2022-09-07T18:47:32.598Z,11.27
2022-09-07T18:50:02.553Z,11.88
2022-09-07T18:55:24.281Z,18.15
2022-09-07T18:57:53.034Z,15.23
2022-09-07T19:00:21.702Z,26.75
2022-09-07T19:02:52.078Z,29.88
2022-09-07T19:08:11.338Z,15.05
2022-09-07T19:10:41.307Z,16.30
2022-09-07T19:13:10.847Z,23.48
2022-09-07T19:15:41.365Z,20.95
2022-09-07T19:18:12.908Z,29.25
2022-09-07T19:20:44.608Z,23.90
2022-09-07T19:23:13.771Z,47.47
2022-09-07T19:25:43.845Z,48.03
2022-09-07T19:28:14.454Z,77.93
2022-09-07T19:30:43.144Z,64.55
2022-09-07T19:33:12.696Z,62.15
2022-09-07T19:35:41.717Z,31.25
2022-09-07T19:38:13.444Z,32.95
2022-09-07T19:40:42.850Z,32.72
2022-09-07T19:43:12.031Z,25.52
2022-09-07T19:45:41.977Z,24.15
2022-09-07T19:48:10.715Z,26.92
2022-09-07T19:50:40.438Z,20.33
2022-09-07T19:53:09.598Z,15.63
2022-09-07T19:55:41.367Z,13.95
2022-09-07T19:58:12.434Z,14.88
2022-09-07T20:00:44.265Z,13.68
2022-09-07T20:03:14.112Z,14.07
2022-09-07T20:05:43.017Z,16.70
2022-09-07T20:08:13.423Z,21.83
2022-09-07T20:10:45.114Z,17.02
2022-09-07T20:13:15.244Z,15.98
2022-09-07T20:15:46.073Z,15.77
2022-09-07T20:18:15.634Z,15.82
2022-09-07T20:20:46.147Z,22.38
2022-09-07T20:23:14.867Z,19.80
2022-09-07T20:25:45.137Z,17.60
2022-09-07T20:28:16.205Z,16.38
2022-09-07T20:30:44.790Z,11.82
2022-09-07T20:33:14.106Z,11.73
2022-09-07T20:35:45.559Z,11.68
2022-09-07T20:38:17.214Z,9.27
2022-09-07T20:40:54.346Z,8.15
2022-09-07T20:43:23.668Z,14.70
2022-09-07T20:45:52.942Z,18.13
2022-09-07T20:48:22.240Z,17.77
2022-09-07T20:50:56.518Z,20.27
2022-09-07T20:53:26.116Z,20.40
2022-09-07T20:56:05.366Z,17.90
2022-09-07T20:58:36.632Z,15.90
2022-09-07T21:01:07.680Z,16.05
2022-09-07T21:03:39.164Z,15.88
2022-09-07T21:06:10.637Z,29.42
2022-09-07T21:08:42.040Z,20.90
2022-09-07T21:11:16.837Z,19.80
2022-09-07T21:13:47.146Z,20.92
2022-09-07T21:16:18.811Z,20.08
2022-09-07T21:18:49.268Z,22.23
2022-09-07T21:21:20.603Z,27.73
2022-09-07T21:23:51.657Z,22.95
2022-09-07T21:26:24.441Z,26.42
2022-09-07T21:28:57.364Z,25.42
2022-09-07T21:31:27.454Z,23.10
2022-09-07T21:33:59.307Z,17.63
2022-09-07T21:36:31.239Z,18.23
2022-09-07T21:39:02.187Z,15.50
2022-09-07T21:41:34.824Z,14.75
2022-09-07T21:44:05.592Z,13.48
2022-09-07T21:46:36.762Z,12.07
2022-09-07T21:49:05.920Z,23.98
2022-09-07T21:51:33.935Z,23.45
2022-09-07T21:54:04.128Z,26.80
2022-09-07T21:56:40.126Z,20.15
2022-09-07T21:59:10.834Z,29.48
2022-09-07T22:01:43.233Z,40.63
2022-09-07T22:04:14.873Z,11.40
2022-09-07T22:06:46.901Z,8.23
2022-09-07T22:09:18.168Z,9.10
2022-09-07T22:11:50.014Z,7.50
2022-09-07T22:14:21.158Z,6.03
2022-09-07T22:16:53.117Z,9.18
2022-09-07T22:19:24.780Z,9.25
2022-09-07T22:21:56.468Z,11.90
2022-09-07T22:24:30.293Z,8.32
2022-09-07T22:27:02.414Z,9.77
2022-09-07T22:29:37.651Z,11.10
2022-09-07T22:32:08.539Z,19.27
2022-09-07T22:34:47.286Z,10.23
2022-09-07T22:37:27.378Z,16.75
2022-09-07T22:39:58.032Z,15.25
2022-09-07T22:42:33.609Z,23.00
2022-09-07T22:45:25.552Z,20.13
2022-09-07T22:48:13.003Z,21.50
2022-09-07T22:50:46.889Z,18.00
2022-09-07T22:53:17.925Z,22.27
2022-09-07T22:55:53.186Z,19.92
2022-09-07T22:58:30.229Z,22.23
2022-09-07T23:01:07.622Z,19.92
2022-09-07T23:03:45.419Z,14.20
2022-09-07T23:06:23.076Z,15.65
2022-09-07T23:08:54.168Z,12.15
2022-09-07T23:11:40.318Z,12.60
2022-09-07T23:14:32.051Z,15.15
2022-09-07T23:17:22.566Z,12.48
2022-09-07T23:20:00.038Z,10.20
2022-09-07T23:22:31.052Z,12.98
2022-09-07T23:25:02.940Z,12.80
2022-09-07T23:27:36.302Z,11.95
2022-09-07T23:32:43.444Z,15.00
2022-09-07T23:35:16.642Z,14.32
2022-09-07T23:37:51.968Z,16.40
2022-09-07T23:40:22.231Z,11.13
2022-09-07T23:42:50.817Z,12.25
2022-09-07T23:45:27.655Z,15.02
2022-09-07T23:47:59.207Z,12.82
2022-09-07T23:50:40.118Z,12.80
2022-09-07T23:53:18.566Z,12.65
2022-09-07T23:55:51.190Z,14.40
2022-09-07T23:58:20.663Z,13.73
